createdAt,value
2022-12-11T00:00:28.831Z,84.36
2022-12-11T00:01:50.393Z,84.34
2022-12-11T00:02:52.455Z,84.41
2022-12-11T00:03:54.216Z,84.36
2022-12-11T00:04:55.770Z,84.27
2022-12-11T00:05:57.617Z,84.25
2022-12-11T00:06:59.152Z,84.36
2022-12-11T00:08:00.908Z,84.31
2022-12-11T00:09:02.626Z,84.32
2022-12-11T00:10:04.687Z,84.48
2022-12-11T00:11:11.098Z,84.31
2022-12-11T00:12:12.631Z,84.32
2022-12-11T00:13:14.260Z,84.22
2022-12-11T00:14:15.844Z,84.34
2022-12-11T00:15:17.812Z,84.42
2022-12-11T00:16:23.815Z,84.41
2022-12-11T00:17:28.145Z,84.39
2022-12-11T00:18:29.801Z,84.33
2022-12-11T00:19:31.396Z,84.31
2022-12-11T00:20:34.431Z,84.32
2022-12-11T00:21:36.271Z,84.38
2022-12-11T00:22:38.195Z,84.41
2022-12-11T00:23:43.302Z,84.23
2022-12-11T00:24:47.020Z,84.35
2022-12-11T00:25:49.199Z,84.31
2022-12-11T00:26:50.747Z,84.39
2022-12-11T00:27:52.183Z,84.39
2022-12-11T00:28:54.998Z,84.34
2022-12-11T00:29:56.566Z,84.19
2022-12-11T00:30:58.104Z,84.22
2022-12-11T00:31:59.698Z,84.14
2022-12-11T00:33:01.213Z,84.05
2022-12-11T00:34:02.801Z,84.15
2022-12-11T00:35:04.577Z,84.08
2022-12-11T00:36:10.562Z,83.94
2022-12-11T00:37:12.289Z,83.93
2022-12-11T00:38:18.302Z,83.94
2022-12-11T00:39:20.090Z,83.98
2022-12-11T00:40:21.731Z,83.83
2022-12-11T00:41:23.769Z,84.02
2022-12-11T00:42:25.325Z,84.05
2022-12-11T00:43:26.829Z,84.07
2022-12-11T00:44:28.410Z,84.10
2022-12-11T00:45:30.093Z,84.19
2022-12-11T00:46:31.847Z,84.11
2022-12-11T00:47:33.617Z,84.24
2022-12-11T00:48:35.275Z,84.22
2022-12-11T00:49:37.132Z,84.21
2022-12-11T00:50:39.586Z,84.31
2022-12-11T00:51:41.076Z,84.30
2022-12-11T00:52:42.639Z,84.47
2022-12-11T00:53:44.195Z,84.50
2022-12-11T00:54:46.118Z,84.38
2022-12-11T00:55:47.713Z,84.53
2022-12-11T00:56:50.123Z,84.55
2022-12-11T00:57:51.843Z,84.71
2022-12-11T00:58:53.345Z,84.61
2022-12-11T00:59:55.118Z,84.69
2022-12-11T01:01:04.440Z,84.65
2022-12-11T01:02:05.972Z,84.72
2022-12-11T01:03:08.756Z,84.88
2022-12-11T01:04:10.338Z,84.72
2022-12-11T01:05:12.160Z,84.70
2022-12-11T01:06:15.441Z,84.82
2022-12-11T01:07:16.930Z,84.73
2022-12-11T01:08:18.595Z,84.75
2022-12-11T01:09:38.944Z,84.70
2022-12-11T01:10:40.562Z,84.96
2022-12-11T01:11:42.608Z,84.92
2022-12-11T01:12:44.132Z,84.98
2022-12-11T01:13:46.374Z,84.85
2022-12-11T01:14:47.911Z,85.02
2022-12-11T01:15:49.492Z,84.88
2022-12-11T01:16:50.951Z,84.85
2022-12-11T01:17:52.679Z,84.91
2022-12-11T01:18:54.242Z,84.97
2022-12-11T01:19:55.927Z,84.89
2022-12-11T01:20:57.582Z,84.83
2022-12-11T01:21:59.875Z,84.74
2022-12-11T01:23:01.318Z,84.73
2022-12-11T01:24:02.964Z,84.60
2022-12-11T01:25:04.710Z,84.53
2022-12-11T01:26:13.429Z,84.63
2022-12-11T01:27:15.332Z,84.63
2022-12-11T01:28:16.859Z,84.69
2022-12-11T01:29:18.460Z,84.64
2022-12-11T01:30:21.748Z,84.58
2022-12-11T01:31:23.343Z,84.70
2022-12-11T01:32:24.790Z,84.75
2022-12-11T01:33:26.599Z,84.65
2022-12-11T01:34:28.774Z,84.62
2022-12-11T01:35:30.392Z,84.61
2022-12-11T01:36:32.119Z,84.43
2022-12-11T01:37:33.911Z,84.64
2022-12-11T01:38:35.372Z,84.54
2022-12-11T01:39:38.222Z,84.50
2022-12-11T01:40:50.517Z,84.51
2022-12-11T01:41:56.402Z,84.47
2022-12-11T01:42:57.935Z,84.61
2022-12-11T01:44:07.757Z,84.74
2022-12-11T01:45:12.581Z,84.79
2022-12-11T01:46:14.399Z,84.96
2022-12-11T01:47:16.617Z,84.83
2022-12-11T01:48:23.119Z,84.86
2022-12-11T01:49:25.659Z,84.81
2022-12-11T01:50:28.255Z,84.95
2022-12-11T01:51:31.294Z,84.97
2022-12-11T01:52:33.013Z,85.02
2022-12-11T01:53:36.542Z,85.04
2022-12-11T01:54:38.292Z,85.09
2022-12-11T01:55:40.496Z,85.16
2022-12-11T01:56:43.001Z,85.21
2022-12-11T01:57:46.499Z,85.08
2022-12-11T01:58:55.036Z,85.41
2022-12-11T01:59:56.671Z,85.60
2022-12-11T02:00:58.871Z,85.47
2022-12-11T02:02:03.491Z,85.58
2022-12-11T02:03:05.170Z,85.52
2022-12-11T02:04:07.024Z,85.51
2022-12-11T02:05:09.436Z,85.67
2022-12-11T02:06:32.045Z,85.49
2022-12-11T02:07:41.743Z,85.25
2022-12-11T02:08:43.297Z,85.35
2022-12-11T02:09:45.825Z,85.43
2022-12-11T02:10:50.583Z,85.47
2022-12-11T02:12:21.468Z,85.61
2022-12-11T02:13:27.992Z,85.63
2022-12-11T02:14:38.397Z,85.63
2022-12-11T02:15:49.901Z,85.62
2022-12-11T02:17:01.443Z,85.70
2022-12-11T02:18:38.674Z,85.78
2022-12-11T02:20:03.209Z,85.68
2022-12-11T02:21:18.591Z,85.63
2022-12-11T02:22:40.410Z,85.70
2022-12-11T02:23:50.920Z,85.66
2022-12-11T02:25:01.739Z,85.83
2022-12-11T02:26:03.483Z,85.72
2022-12-11T02:27:13.497Z,85.71
2022-12-11T02:28:29.480Z,85.80
2022-12-11T02:29:38.868Z,85.92
2022-12-11T02:32:16.724Z,85.88
2022-12-11T02:33:21.471Z,86.03
2022-12-11T02:34:28.291Z,85.85
2022-12-11T02:35:32.681Z,85.91
2022-12-11T02:36:36.861Z,85.79
2022-12-11T02:37:40.660Z,85.95
2022-12-11T02:38:46.298Z,85.93
2022-12-11T02:39:49.186Z,85.85
2022-12-11T02:40:53.050Z,85.74
2022-12-11T02:41:55.777Z,85.83
2022-12-11T02:42:59.042Z,86.03
2022-12-11T02:44:02.156Z,85.80
2022-12-11T02:45:04.226Z,85.96
2022-12-11T02:46:07.142Z,85.91
2022-12-11T02:47:11.929Z,85.90
2022-12-11T02:48:14.337Z,86.15
2022-12-11T02:49:17.168Z,86.08
2022-12-11T02:50:20.798Z,86.24
2022-12-11T02:51:25.192Z,86.37
2022-12-11T02:52:28.498Z,86.48
2022-12-11T02:53:31.736Z,86.46
2022-12-11T02:54:35.317Z,86.49
2022-12-11T02:55:37.738Z,86.50
2022-12-11T02:56:52.121Z,86.43
2022-12-11T02:58:29.433Z,86.41
2022-12-11T02:59:35.911Z,86.36
2022-12-11T03:00:37.552Z,86.55
2022-12-11T03:01:39.224Z,86.47
2022-12-11T03:02:41.636Z,86.42
2022-12-11T03:03:43.364Z,86.58
2022-12-11T03:04:45.360Z,86.46
2022-12-11T03:05:47.463Z,86.48
2022-12-11T03:06:51.201Z,86.70
2022-12-11T03:07:52.791Z,86.70
2022-12-11T03:08:54.293Z,86.81
2022-12-11T03:09:56.027Z,86.78
2022-12-11T03:10:57.679Z,86.82
2022-12-11T03:11:59.165Z,86.89
2022-12-11T03:13:02.049Z,86.74
2022-12-11T03:14:03.954Z,86.58
2022-12-11T03:15:07.675Z,86.55
2022-12-11T03:16:28.304Z,86.71
2022-12-11T03:17:34.847Z,86.71
2022-12-11T03:18:36.357Z,86.75
2022-12-11T03:19:45.384Z,86.75
2022-12-11T03:20:57.562Z,86.85
2022-12-11T03:22:02.083Z,86.92
2022-12-11T03:23:08.915Z,87.08
2022-12-11T03:24:16.694Z,86.96
2022-12-11T03:25:18.155Z,87.06
2022-12-11T03:26:20.400Z,87.10
2022-12-11T03:27:26.065Z,87.05
2022-12-11T03:28:41.058Z,87.12
2022-12-11T03:29:48.604Z,87.03
2022-12-11T03:30:52.262Z,86.98
2022-12-11T03:31:58.744Z,86.93
2022-12-11T03:33:23.177Z,86.86
2022-12-11T03:34:35.029Z,86.80
2022-12-11T03:35:39.677Z,86.90
2022-12-11T03:36:41.950Z,86.77
2022-12-11T03:37:44.364Z,86.68
2022-12-11T03:38:49.769Z,86.59
2022-12-11T03:39:53.360Z,86.61
2022-12-11T03:40:57.585Z,86.57
2022-12-11T03:42:01.110Z,86.44
2022-12-11T03:43:04.222Z,86.49
2022-12-11T03:44:06.574Z,86.65
2022-12-11T03:45:08.625Z,86.51
2022-12-11T03:46:12.326Z,86.47
2022-12-11T03:47:17.073Z,86.55
2022-12-11T03:48:20.354Z,86.67
2022-12-11T03:49:27.298Z,86.55
2022-12-11T03:50:30.895Z,86.57
2022-12-11T03:51:33.755Z,86.38
2022-12-11T03:52:40.976Z,86.45
2022-12-11T03:53:47.195Z,86.15
2022-12-11T03:54:50.175Z,86.20
2022-12-11T03:55:52.720Z,85.84
2022-12-11T03:56:56.945Z,85.98
2022-12-11T03:57:58.521Z,85.85
2022-12-11T03:58:59.927Z,85.89
2022-12-11T04:00:04.247Z,85.95
2022-12-11T04:01:13.576Z,85.77
2022-12-11T04:02:15.043Z,85.72
2022-12-11T04:03:17.345Z,85.70
2022-12-11T04:04:18.993Z,85.47
2022-12-11T04:05:20.671Z,85.54
2022-12-11T04:06:22.170Z,85.60
2022-12-11T04:07:23.959Z,85.72
2022-12-11T04:08:25.584Z,85.45
2022-12-11T04:09:27.124Z,85.52
2022-12-11T04:10:28.871Z,85.62
2022-12-11T04:11:36.148Z,85.71
2022-12-11T04:12:37.888Z,85.64
2022-12-11T04:13:40.299Z,85.70
2022-12-11T04:15:00.617Z,85.46
2022-12-11T04:16:02.438Z,85.70
2022-12-11T04:17:03.934Z,85.49
2022-12-11T04:18:25.003Z,85.62
2022-12-11T04:19:45.418Z,85.67
2022-12-11T04:21:06.009Z,85.43
2022-12-11T04:22:27.986Z,85.73
2022-12-11T04:23:48.538Z,85.74
2022-12-11T04:24:50.081Z,85.73
2022-12-11T04:25:51.540Z,85.67
2022-12-11T04:26:53.098Z,85.71
2022-12-11T04:27:54.741Z,85.93
2022-12-11T04:28:56.278Z,85.75
2022-12-11T04:29:57.778Z,85.85
2022-12-11T04:30:59.354Z,85.72
2022-12-11T04:32:00.965Z,85.66
2022-12-11T04:33:02.733Z,85.79
2022-12-11T04:34:04.366Z,85.67
2022-12-11T04:35:07.533Z,85.56
2022-12-11T04:36:09.794Z,85.72
2022-12-11T04:37:11.321Z,85.76
2022-12-11T04:38:13.093Z,85.87
2022-12-11T04:39:14.657Z,86.08
2022-12-11T04:40:17.530Z,85.96
2022-12-11T04:41:19.299Z,85.94
2022-12-11T04:42:21.057Z,86.15
2022-12-11T04:43:22.571Z,86.03
2022-12-11T04:44:24.066Z,86.13
2022-12-11T04:45:25.537Z,86.11
2022-12-11T04:46:27.149Z,86.29
2022-12-11T04:47:28.707Z,86.48
2022-12-11T04:48:30.280Z,86.44
2022-12-11T04:49:31.823Z,86.28
2022-12-11T04:50:33.292Z,86.21
2022-12-11T04:51:34.802Z,86.31
2022-12-11T04:52:36.309Z,86.45
2022-12-11T04:53:38.630Z,86.59
2022-12-11T04:54:40.555Z,86.41
2022-12-11T04:55:42.051Z,86.31
2022-12-11T04:56:43.465Z,86.23
2022-12-11T04:57:44.981Z,86.35
2022-12-11T04:58:51.022Z,86.21
2022-12-11T04:59:52.460Z,86.34
2022-12-11T05:00:53.927Z,86.38
2022-12-11T05:01:55.538Z,86.43
2022-12-11T05:02:57.171Z,86.29
2022-12-11T05:03:59.465Z,86.28
2022-12-11T05:05:02.547Z,86.30
2022-12-11T05:06:04.204Z,86.23
2022-12-11T05:07:05.653Z,86.07
2022-12-11T05:08:07.669Z,86.15
2022-12-11T05:09:12.699Z,86.16
2022-12-11T05:10:14.179Z,86.15
2022-12-11T05:11:16.789Z,86.20
2022-12-11T05:12:18.251Z,86.03
2022-12-11T05:13:19.708Z,86.15
2022-12-11T05:14:21.573Z,86.30
2022-12-11T05:15:23.261Z,86.18
2022-12-11T05:16:24.813Z,86.21
2022-12-11T05:17:26.315Z,86.09
2022-12-11T05:18:27.858Z,86.09
2022-12-11T05:19:29.473Z,86.21
2022-12-11T05:20:30.945Z,86.36
2022-12-11T05:21:35.173Z,86.36
2022-12-11T05:22:37.421Z,86.34
2022-12-11T05:23:39.002Z,86.12
2022-12-11T05:24:40.774Z,86.29
2022-12-11T05:25:42.311Z,86.20
2022-12-11T05:26:43.840Z,86.10
2022-12-11T05:27:45.317Z,86.22
2022-12-11T05:28:50.057Z,86.12
2022-12-11T05:29:54.864Z,86.27
2022-12-11T05:31:02.841Z,86.28
2022-12-11T05:32:04.457Z,86.36
2022-12-11T05:33:06.036Z,86.71
2022-12-11T05:34:07.551Z,86.94
2022-12-11T05:35:09.777Z,87.16
2022-12-11T05:36:16.170Z,87.56
2022-12-11T05:37:17.659Z,87.70
2022-12-11T05:38:19.782Z,87.83
2022-12-11T05:39:21.411Z,88.32
2022-12-11T05:40:22.989Z,88.10
2022-12-11T05:41:25.777Z,88.61
2022-12-11T05:42:29.124Z,88.87
2022-12-11T05:43:31.877Z,88.92
2022-12-11T05:44:33.354Z,89.13
2022-12-11T05:45:34.940Z,89.19
2022-12-11T05:46:36.462Z,89.14
2022-12-11T05:47:37.953Z,89.15
2022-12-11T05:48:39.926Z,89.09
2022-12-11T05:49:41.409Z,89.25
2022-12-11T05:50:42.965Z,89.23
2022-12-11T05:51:44.419Z,89.15
2022-12-11T05:52:45.857Z,89.51
2022-12-11T05:53:49.039Z,89.46
2022-12-11T05:54:50.484Z,89.52
2022-12-11T05:55:52.253Z,89.72
2022-12-11T05:56:53.784Z,89.64
2022-12-11T05:57:55.248Z,89.69
2022-12-11T05:58:57.177Z,89.66
2022-12-11T05:59:58.726Z,89.77
2022-12-11T06:01:00.742Z,89.55
2022-12-11T06:02:02.418Z,89.73
2022-12-11T06:03:04.021Z,89.88
2022-12-11T06:04:06.864Z,89.83
2022-12-11T06:05:08.569Z,89.96
2022-12-11T06:06:10.497Z,90.05
2022-12-11T06:07:12.563Z,90.00
2022-12-11T06:08:14.297Z,89.95
2022-12-11T06:09:16.556Z,90.02
2022-12-11T06:10:18.366Z,89.95
2022-12-11T06:11:23.979Z,89.94
2022-12-11T06:12:26.662Z,89.99
2022-12-11T06:13:28.161Z,89.81
2022-12-11T06:14:29.631Z,90.03
2022-12-11T06:15:31.771Z,90.08
2022-12-11T06:16:33.509Z,90.14
2022-12-11T06:17:35.170Z,90.12
2022-12-11T06:18:37.734Z,89.97
2022-12-11T06:19:39.334Z,90.06
2022-12-11T06:20:40.796Z,90.16
2022-12-11T06:21:43.328Z,90.01
2022-12-11T06:22:44.845Z,90.12
2022-12-11T06:23:47.283Z,90.16
2022-12-11T06:24:48.726Z,90.04
2022-12-11T06:25:50.321Z,90.37
2022-12-11T06:26:51.937Z,90.02
2022-12-11T06:27:53.494Z,90.32
2022-12-11T06:28:55.079Z,90.23
2022-12-11T06:29:56.572Z,90.37
2022-12-11T06:30:58.754Z,90.30
2022-12-11T06:32:00.411Z,90.15
2022-12-11T06:33:01.949Z,90.24
2022-12-11T06:34:03.390Z,90.13
2022-12-11T06:35:05.219Z,90.16
2022-12-11T06:36:08.248Z,89.81
2022-12-11T06:37:10.092Z,89.89
2022-12-11T06:38:11.529Z,89.70
2022-12-11T06:39:13.003Z,89.79
2022-12-11T06:40:14.514Z,89.58
2022-12-11T06:41:16.648Z,89.63
2022-12-11T06:42:18.333Z,89.43
2022-12-11T06:43:19.903Z,89.47
2022-12-11T06:44:21.798Z,89.15
2022-12-11T06:45:23.319Z,89.12
2022-12-11T06:46:24.801Z,89.09
2022-12-11T06:47:26.929Z,88.84
2022-12-11T06:48:28.431Z,89.10
2022-12-11T06:49:29.952Z,88.52
2022-12-11T06:50:31.481Z,88.41
2022-12-11T06:51:33.004Z,88.41
2022-12-11T06:52:34.670Z,88.05
2022-12-11T06:53:36.534Z,88.31
2022-12-11T06:54:38.105Z,88.39
2022-12-11T06:55:39.681Z,88.17
2022-12-11T06:56:41.290Z,87.88
2022-12-11T06:57:42.931Z,88.02
2022-12-11T06:58:44.460Z,87.89
2022-12-11T06:59:45.926Z,87.72
2022-12-11T07:00:47.758Z,87.83
2022-12-11T07:01:49.405Z,88.00
2022-12-11T07:02:51.094Z,88.00
2022-12-11T07:03:53.608Z,88.03
2022-12-11T07:04:55.483Z,87.79
2022-12-11T07:06:01.614Z,88.22
2022-12-11T07:07:03.160Z,88.25
2022-12-11T07:08:06.943Z,88.27
2022-12-11T07:09:09.919Z,88.46
2022-12-11T07:10:11.541Z,88.50
2022-12-11T07:11:14.317Z,88.37
2022-12-11T07:12:16.169Z,88.49
2022-12-11T07:13:17.787Z,88.38
2022-12-11T07:14:20.452Z,88.52
2022-12-11T07:15:21.957Z,88.43
2022-12-11T07:16:23.426Z,88.33
2022-12-11T07:17:25.282Z,88.45
2022-12-11T07:18:27.326Z,88.37
2022-12-11T07:19:28.921Z,88.40
2022-12-11T07:20:30.378Z,88.38
2022-12-11T07:21:31.809Z,88.30
2022-12-11T07:22:33.365Z,88.33
2022-12-11T07:23:35.622Z,88.33
2022-12-11T07:24:37.115Z,88.25
2022-12-11T07:25:38.660Z,88.24
2022-12-11T07:26:40.231Z,88.18
2022-12-11T07:27:41.795Z,88.34
2022-12-11T07:28:43.813Z,88.24
2022-12-11T07:29:45.474Z,88.34
2022-12-11T07:30:47.177Z,88.54
2022-12-11T07:31:48.806Z,88.44
2022-12-11T07:32:50.444Z,88.59
2022-12-11T07:33:59.635Z,88.63
2022-12-11T07:35:01.215Z,88.65
2022-12-11T07:36:04.243Z,88.80
2022-12-11T07:37:05.836Z,88.59
2022-12-11T07:38:07.866Z,88.79
2022-12-11T07:39:13.084Z,88.76
2022-12-11T07:40:14.864Z,88.64
2022-12-11T07:41:17.144Z,88.65
2022-12-11T07:42:18.976Z,88.56
2022-12-11T07:43:20.615Z,88.24
2022-12-11T07:44:22.898Z,88.02
2022-12-11T07:45:25.804Z,87.65
2022-12-11T07:46:28.423Z,87.82
2022-12-11T07:47:30.064Z,88.03
2022-12-11T07:48:31.723Z,87.97
2022-12-11T07:49:33.360Z,87.69
2022-12-11T07:50:39.764Z,87.27
2022-12-11T07:51:42.030Z,87.19
2022-12-11T07:52:44.007Z,86.34
2022-12-11T07:53:47.128Z,86.67
2022-12-11T07:54:48.823Z,86.83
2022-12-11T07:55:50.345Z,86.81
2022-12-11T07:56:54.012Z,86.52
2022-12-11T07:57:55.641Z,86.67
2022-12-11T07:59:01.064Z,86.70
2022-12-11T08:00:04.110Z,86.81
2022-12-11T08:01:34.882Z,86.87
2022-12-11T08:02:37.537Z,86.51
2022-12-11T08:03:39.399Z,86.76
2022-12-11T08:04:40.985Z,86.70
2022-12-11T08:05:49.595Z,86.94
2022-12-11T08:06:51.073Z,86.98
2022-12-11T08:07:52.602Z,87.00
2022-12-11T08:08:57.823Z,86.86
2022-12-11T08:09:59.550Z,86.86
2022-12-11T08:11:11.687Z,86.80
2022-12-11T08:12:13.398Z,86.36
2022-12-11T08:13:14.911Z,86.54
2022-12-11T08:14:17.306Z,86.53
2022-12-11T08:15:18.839Z,86.85
2022-12-11T08:16:20.943Z,87.00
2022-12-11T08:17:27.417Z,87.28
2022-12-11T08:18:32.661Z,87.43
2022-12-11T08:19:34.238Z,87.55
2022-12-11T08:20:37.239Z,87.57
2022-12-11T08:21:39.470Z,87.46
2022-12-11T08:22:41.126Z,87.56
2022-12-11T08:23:42.831Z,87.71
2022-12-11T08:24:44.253Z,87.80
2022-12-11T08:25:45.844Z,87.76
2022-12-11T08:26:48.676Z,87.89
2022-12-11T08:27:50.461Z,87.80
2022-12-11T08:28:52.319Z,87.74
2022-12-11T08:29:53.777Z,87.81
2022-12-11T08:30:55.345Z,87.96
2022-12-11T08:31:57.165Z,88.04
2022-12-11T08:32:59.224Z,87.99
2022-12-11T08:34:01.292Z,87.93
2022-12-11T08:35:02.935Z,87.77
2022-12-11T08:36:06.502Z,87.96
2022-12-11T08:37:08.176Z,87.97
2022-12-11T08:38:09.690Z,88.12
2022-12-11T08:39:11.235Z,88.13
2022-12-11T08:40:13.470Z,88.21
2022-12-11T08:41:16.477Z,88.32
2022-12-11T08:42:18.261Z,88.36
2022-12-11T08:43:19.943Z,88.44
2022-12-11T08:44:24.360Z,88.41
2022-12-11T08:45:26.429Z,88.40
2022-12-11T08:46:31.724Z,88.52
2022-12-11T08:47:33.405Z,88.60
2022-12-11T08:48:36.089Z,88.68
2022-12-11T08:49:37.538Z,88.63
2022-12-11T08:50:39.065Z,88.57
2022-12-11T08:51:40.535Z,88.63
2022-12-11T08:52:42.193Z,88.69
2022-12-11T08:53:44.342Z,88.75
2022-12-11T08:54:47.732Z,88.72
2022-12-11T08:55:49.131Z,88.83
2022-12-11T08:56:54.872Z,88.76
2022-12-11T08:58:00.347Z,88.89
2022-12-11T08:59:04.818Z,88.79
2022-12-11T09:00:20.674Z,88.72
2022-12-11T09:01:24.028Z,89.04
2022-12-11T09:02:25.641Z,88.69
2022-12-11T09:03:27.635Z,88.81
2022-12-11T09:04:29.424Z,88.88
2022-12-11T09:05:30.951Z,89.12
2022-12-11T09:06:32.758Z,88.92
2022-12-11T09:07:35.157Z,88.97
2022-12-11T09:08:37.473Z,88.88
2022-12-11T09:09:39.301Z,88.87
2022-12-11T09:10:41.007Z,89.07
2022-12-11T09:11:42.488Z,88.79
2022-12-11T09:12:44.483Z,88.92
2022-12-11T09:13:46.211Z,88.94
2022-12-11T09:14:47.698Z,88.72
2022-12-11T09:15:49.168Z,88.75
2022-12-11T09:16:50.612Z,88.80
2022-12-11T09:17:52.431Z,88.79
2022-12-11T09:18:55.795Z,88.79
2022-12-11T09:19:57.621Z,88.66
2022-12-11T09:21:00.294Z,88.59
2022-12-11T09:22:01.725Z,88.75
2022-12-11T09:23:04.081Z,88.69
2022-12-11T09:24:06.114Z,88.75
2022-12-11T09:25:09.228Z,88.77
2022-12-11T09:26:12.711Z,88.83
2022-12-11T09:27:14.465Z,88.96
2022-12-11T09:28:16.096Z,88.90
2022-12-11T09:29:17.866Z,88.98
2022-12-11T09:30:19.517Z,88.99
2022-12-11T09:31:23.342Z,88.89
2022-12-11T09:32:24.996Z,88.86
2022-12-11T09:33:27.100Z,89.00
2022-12-11T09:34:29.657Z,89.13
2022-12-11T09:35:31.556Z,88.99
2022-12-11T09:36:33.566Z,89.21
2022-12-11T09:37:35.473Z,89.12
2022-12-11T09:38:38.195Z,89.12
2022-12-11T09:39:39.898Z,89.08
2022-12-11T09:40:42.579Z,89.10
2022-12-11T09:42:03.024Z,89.19
2022-12-11T09:43:18.000Z,89.24
2022-12-11T09:44:31.622Z,89.20
2022-12-11T09:45:49.676Z,89.03
2022-12-11T09:46:51.362Z,89.26
2022-12-11T09:47:54.910Z,88.99
2022-12-11T09:48:56.836Z,89.10
2022-12-11T09:50:03.951Z,89.03
2022-12-11T09:51:14.127Z,89.20
2022-12-11T09:52:15.641Z,89.15
2022-12-11T09:53:17.070Z,88.93
2022-12-11T09:54:18.512Z,89.11
2022-12-11T09:55:23.602Z,89.05
2022-12-11T09:56:31.001Z,89.26
2022-12-11T09:57:42.299Z,89.03
2022-12-11T09:58:55.780Z,89.12
2022-12-11T10:00:04.786Z,89.17
2022-12-11T10:01:07.073Z,88.97
2022-12-11T10:02:30.877Z,89.11
2022-12-11T10:04:06.613Z,89.07
2022-12-11T10:05:21.139Z,89.08
2022-12-11T10:06:32.616Z,89.16
2022-12-11T10:07:41.534Z,89.35
2022-12-11T10:08:57.186Z,89.21
2022-12-11T10:10:12.436Z,89.30
2022-12-11T10:11:32.523Z,89.26
2022-12-11T10:12:40.448Z,89.36
2022-12-11T10:14:02.453Z,89.24
2022-12-11T10:15:12.216Z,89.30
2022-12-11T10:16:14.065Z,89.32
2022-12-11T10:17:20.169Z,89.31
2022-12-11T10:18:23.449Z,89.26
2022-12-11T10:19:30.326Z,89.40
2022-12-11T10:20:39.156Z,89.32
2022-12-11T10:21:42.638Z,89.37
2022-12-11T10:22:44.787Z,89.25
2022-12-11T10:24:12.450Z,89.43
2022-12-11T10:25:20.118Z,89.27
2022-12-11T10:26:22.588Z,89.34
2022-12-11T10:27:30.508Z,89.45
2022-12-11T10:28:32.114Z,89.37
2022-12-11T10:29:33.760Z,89.63
2022-12-11T10:30:37.328Z,89.32
2022-12-11T10:31:57.838Z,89.28
2022-12-11T10:33:05.161Z,89.31
2022-12-11T10:34:12.845Z,89.25
2022-12-11T10:35:20.082Z,89.37
2022-12-11T10:36:44.770Z,88.99
2022-12-11T10:37:46.359Z,89.20
2022-12-11T10:38:48.058Z,89.38
2022-12-11T10:39:49.510Z,89.43
2022-12-11T10:40:57.539Z,89.56
2022-12-11T10:42:04.086Z,89.66
2022-12-11T10:43:05.732Z,89.50
2022-12-11T10:44:34.170Z,89.74
2022-12-11T10:45:35.793Z,89.65
2022-12-11T10:46:38.239Z,89.78
2022-12-11T10:47:40.569Z,89.63
2022-12-11T10:48:52.944Z,89.60
2022-12-11T10:50:01.450Z,89.54
2022-12-11T10:51:06.525Z,89.62
2022-12-11T10:52:29.139Z,89.45
2022-12-11T10:53:31.559Z,89.66
2022-12-11T10:54:33.131Z,89.61
2022-12-11T10:55:45.075Z,89.50
2022-12-11T10:56:47.741Z,89.40
2022-12-11T10:57:58.068Z,89.53
2022-12-11T10:59:00.774Z,89.62
2022-12-11T11:00:05.838Z,89.51
2022-12-11T11:01:07.391Z,89.46
2022-12-11T11:02:23.306Z,89.60
2022-12-11T11:03:27.169Z,89.44
2022-12-11T11:04:31.609Z,89.34
2022-12-11T11:05:35.101Z,89.30
2022-12-11T11:06:37.026Z,89.39
2022-12-11T11:07:40.156Z,89.40
2022-12-11T11:08:43.757Z,89.17
2022-12-11T11:09:46.068Z,89.06
2022-12-11T11:10:53.357Z,89.02
2022-12-11T11:11:55.055Z,89.05
2022-12-11T11:13:00.718Z,88.96
2022-12-11T11:14:05.296Z,89.09
2022-12-11T11:15:14.795Z,88.72
2022-12-11T11:16:18.655Z,88.74
2022-12-11T11:17:20.278Z,88.75
2022-12-11T11:18:25.568Z,88.57
2022-12-11T11:19:30.270Z,88.27
2022-12-11T11:20:33.644Z,87.68
2022-12-11T11:21:35.773Z,87.90
2022-12-11T11:22:44.698Z,88.20
2022-12-11T11:23:51.875Z,88.14
2022-12-11T11:24:56.299Z,88.00
2022-12-11T11:25:59.694Z,88.11
2022-12-11T11:27:12.751Z,88.11
2022-12-11T11:28:20.518Z,87.79
2022-12-11T11:29:32.483Z,87.56
2022-12-11T11:30:35.873Z,87.46
2022-12-11T11:31:37.786Z,87.52
2022-12-11T11:32:40.402Z,87.28
2022-12-11T11:33:49.002Z,87.32
2022-12-11T11:34:53.352Z,87.21
2022-12-11T11:36:03.038Z,87.33
2022-12-11T11:37:05.497Z,87.27
2022-12-11T11:38:33.314Z,87.31
2022-12-11T11:39:44.336Z,87.20
2022-12-11T11:41:05.594Z,87.07
2022-12-11T11:42:14.787Z,87.15
2022-12-11T11:43:35.321Z,87.10
2022-12-11T11:44:39.874Z,86.34
2022-12-11T11:45:53.160Z,86.53
2022-12-11T11:47:01.601Z,86.59
2022-12-11T11:48:19.172Z,86.53
2022-12-11T11:49:23.417Z,86.62
2022-12-11T11:50:29.195Z,86.36
2022-12-11T11:51:35.533Z,86.59
2022-12-11T11:52:36.983Z,86.61
2022-12-11T11:53:40.915Z,86.73
2022-12-11T11:54:42.397Z,86.87
2022-12-11T11:56:02.589Z,86.94
2022-12-11T11:57:24.339Z,86.89
2022-12-11T11:58:30.542Z,86.82
2022-12-11T11:59:54.970Z,86.37
2022-12-11T12:00:57.663Z,86.46
2022-12-11T12:01:59.169Z,86.14
2022-12-11T12:03:05.373Z,86.48
2022-12-11T12:04:07.162Z,86.60
2022-12-11T12:05:13.439Z,86.70
2022-12-11T12:06:21.028Z,86.37
2022-12-11T12:07:37.423Z,86.09
2022-12-11T12:08:46.292Z,86.20
2022-12-11T12:10:00.710Z,86.23
2022-12-11T12:11:09.588Z,86.28
2022-12-11T12:12:22.808Z,86.03
2022-12-11T12:13:51.762Z,85.83
2022-12-11T12:14:53.403Z,86.18
2022-12-11T12:15:54.989Z,85.86
2022-12-11T12:17:18.364Z,85.70
2022-12-11T12:18:19.963Z,85.62
2022-12-11T12:19:40.346Z,85.62
2022-12-11T12:20:52.741Z,85.79
2022-12-11T12:21:54.261Z,85.78
2022-12-11T12:22:59.889Z,85.38
2022-12-11T12:24:04.504Z,85.46
2022-12-11T12:25:18.094Z,85.22
2022-12-11T12:26:28.180Z,84.31
2022-12-11T12:27:52.010Z,84.94
2022-12-11T12:29:19.262Z,84.26
2022-12-11T12:30:23.381Z,83.93
2022-12-11T12:31:31.981Z,83.93
2022-12-11T12:32:36.199Z,84.42
2022-12-11T12:33:46.638Z,84.30
2022-12-11T12:34:52.115Z,84.11
2022-12-11T12:36:06.898Z,84.25
2022-12-11T12:37:26.429Z,84.34
2022-12-11T12:38:30.967Z,83.37
2022-12-11T12:39:51.516Z,83.41
2022-12-11T12:41:01.658Z,83.43
2022-12-11T12:42:16.821Z,83.58
2022-12-11T12:43:22.981Z,83.51
2022-12-11T12:44:27.172Z,83.68
2022-12-11T12:45:43.775Z,83.87
2022-12-11T12:46:51.904Z,83.95
2022-12-11T12:47:56.925Z,84.26
2022-12-11T12:48:59.642Z,83.95
2022-12-11T12:50:02.153Z,83.88
2022-12-11T12:51:04.091Z,84.43
2022-12-11T12:52:09.941Z,84.47
2022-12-11T12:53:15.943Z,84.71
2022-12-11T12:54:19.046Z,84.76
2022-12-11T12:55:22.945Z,84.60
2022-12-11T12:56:25.473Z,84.31
2022-12-11T12:57:27.046Z,84.45
2022-12-11T12:58:30.603Z,84.16
2022-12-11T12:59:32.118Z,84.38
2022-12-11T13:00:38.208Z,84.18
2022-12-11T13:01:45.735Z,84.29
2022-12-11T13:02:49.854Z,84.12
2022-12-11T13:03:59.046Z,83.48
2022-12-11T13:05:05.401Z,83.74
2022-12-11T13:06:10.170Z,83.40
2022-12-11T13:07:26.542Z,83.68
2022-12-11T13:08:41.262Z,83.77
2022-12-11T13:09:43.087Z,84.05
2022-12-11T13:10:44.722Z,83.97
2022-12-11T13:11:49.524Z,84.23
2022-12-11T13:12:51.640Z,84.15
2022-12-11T13:14:12.366Z,84.10
2022-12-11T13:15:32.607Z,84.16
2022-12-11T13:16:43.937Z,84.38
2022-12-11T13:17:45.661Z,84.47
2022-12-11T13:18:47.789Z,84.53
2022-12-11T13:19:50.827Z,84.39
2022-12-11T13:20:52.617Z,83.76
2022-12-11T13:22:12.557Z,83.99
2022-12-11T13:23:18.845Z,83.86
2022-12-11T13:24:20.351Z,83.85
2022-12-11T13:25:24.650Z,84.15
2022-12-11T13:26:27.212Z,84.18
2022-12-11T13:27:28.727Z,84.09
2022-12-11T13:28:32.563Z,83.94
2022-12-11T13:29:36.187Z,83.91
2022-12-11T13:30:38.584Z,83.73
2022-12-11T13:31:43.085Z,83.87
2022-12-11T13:32:53.686Z,83.77
2022-12-11T13:33:56.574Z,83.93
2022-12-11T13:35:03.394Z,83.91
2022-12-11T13:36:21.477Z,83.95
2022-12-11T13:37:32.338Z,84.02
2022-12-11T13:38:34.754Z,83.61
2022-12-11T13:39:39.145Z,83.19
2022-12-11T13:40:42.338Z,83.20
2022-12-11T13:41:49.836Z,83.13
2022-12-11T13:42:56.408Z,83.02
2022-12-11T13:43:58.222Z,83.24
2022-12-11T13:45:00.979Z,83.37
2022-12-11T13:46:04.725Z,83.23
2022-12-11T13:47:11.475Z,82.92
2022-12-11T13:48:17.230Z,83.06
2022-12-11T13:49:25.144Z,83.25
2022-12-11T13:50:31.146Z,83.36
2022-12-11T13:51:35.228Z,83.70
2022-12-11T13:52:37.076Z,83.58
2022-12-11T13:53:38.743Z,83.90
2022-12-11T13:54:46.271Z,83.98
2022-12-11T13:55:58.751Z,84.01